sensor_id;sensor_type;location;lat;lon;timestamp;P1;durP1;ratioP1;P2;durP2;ratioP2
12597;SDS011;6364;53.590;9.956;2022-11-20T00:01:25;6.15;;;4.18;;
12597;SDS011;6364;53.590;9.956;2022-11-20T00:03:51;8.55;;;4.03;;
12597;SDS011;6364;53.590;9.956;2022-11-20T00:06:18;7.13;;;4.20;;
12597;SDS011;6364;53.590;9.956;2022-11-20T00:08:44;8.10;;;4.22;;
12597;SDS011;6364;53.590;9.956;2022-11-20T00:11:10;8.20;;;4.80;;
12597;SDS011;6364;53.590;9.956;2022-11-20T00:13:37;6.22;;;4.05;;
12597;SDS011;6364;53.590;9.956;2022-11-20T00:16:03;7.28;;;4.15;;
12597;SDS011;6364;53.590;9.956;2022-11-20T00:18:29;8.77;;;4.40;;
12597;SDS011;6364;53.590;9.956;2022-11-20T00:21:00;7.25;;;4.55;;
12597;SDS011;6364;53.590;9.956;2022-11-20T00:23:29;6.63;;;4.13;;
12597;SDS011;6364;53.590;9.956;2022-11-20T00:25:54;6.15;;;4.40;;
12597;SDS011;6364;53.590;9.956;2022-11-20T00:28:20;9.07;;;4.28;;
12597;SDS011;6364;53.590;9.956;2022-11-20T00:30:45;6.65;;;4.15;;
12597;SDS011;6364;53.590;9.956;2022-11-20T00:33:10;6.53;;;4.05;;
12597;SDS011;6364;53.590;9.956;2022-11-20T00:35:35;7.40;;;4.43;;
12597;SDS011;6364;53.590;9.956;2022-11-20T00:38:01;9.27;;;4.40;;
12597;SDS011;6364;53.590;9.956;2022-11-20T00:40:26;9.32;;;4.70;;
12597;SDS011;6364;53.590;9.956;2022-11-20T00:42:51;7.72;;;4.38;;
12597;SDS011;6364;53.590;9.956;2022-11-20T00:45:17;5.18;;;3.92;;
12597;SDS011;6364;53.590;9.956;2022-11-20T00:47:42;7.88;;;4.25;;
12597;SDS011;6364;53.590;9.956;2022-11-20T00:50:07;6.05;;;3.85;;
12597;SDS011;6364;53.590;9.956;2022-11-20T00:52:33;7.95;;;3.97;;
12597;SDS011;6364;53.590;9.956;2022-11-20T00:54:58;9.00;;;4.50;;
12597;SDS011;6364;53.590;9.956;2022-11-20T00:57:24;4.88;;;3.92;;
12597;SDS011;6364;53.590;9.956;2022-11-20T00:59:49;7.25;;;4.60;;
12597;SDS011;6364;53.590;9.956;2022-11-20T01:02:14;8.30;;;4.40;;
12597;SDS011;6364;53.590;9.956;2022-11-20T01:04:41;9.10;;;4.30;;
12597;SDS011;6364;53.590;9.956;2022-11-20T01:07:07;5.93;;;3.80;;
12597;SDS011;6364;53.590;9.956;2022-11-20T01:09:32;6.07;;;4.15;;
12597;SDS011;6364;53.590;9.956;2022-11-20T01:11:57;6.03;;;4.50;;
12597;SDS011;6364;53.590;9.956;2022-11-20T01:14:24;5.97;;;4.20;;
12597;SDS011;6364;53.590;9.956;2022-11-20T01:16:50;8.50;;;4.43;;
12597;SDS011;6364;53.590;9.956;2022-11-20T01:19:20;7.75;;;4.50;;
12597;SDS011;6364;53.590;9.956;2022-11-20T01:21:48;7.28;;;4.35;;
12597;SDS011;6364;53.590;9.956;2022-11-20T01:24:15;8.00;;;4.72;;
12597;SDS011;6364;53.590;9.956;2022-11-20T01:26:42;8.75;;;4.75;;
12597;SDS011;6364;53.590;9.956;2022-11-20T01:29:13;7.13;;;4.45;;
12597;SDS011;6364;53.590;9.956;2022-11-20T01:31:39;8.90;;;4.80;;
12597;SDS011;6364;53.590;9.956;2022-11-20T01:34:10;9.20;;;4.35;;
12597;SDS011;6364;53.590;9.956;2022-11-20T01:36:37;6.40;;;4.40;;
12597;SDS011;6364;53.590;9.956;2022-11-20T01:39:05;8.40;;;4.53;;
12597;SDS011;6364;53.590;9.956;2022-11-20T01:41:32;7.20;;;4.60;;
12597;SDS011;6364;53.590;9.956;2022-11-20T01:44:17;7.63;;;5.03;;
12597;SDS011;6364;53.590;9.956;2022-11-20T01:46:57;7.10;;;4.82;;
12597;SDS011;6364;53.590;9.956;2022-11-20T01:49:27;9.70;;;5.50;;
12597;SDS011;6364;53.590;9.956;2022-11-20T01:52:07;8.45;;;5.32;;
12597;SDS011;6364;53.590;9.956;2022-11-20T01:54:41;10.63;;;5.18;;
12597;SDS011;6364;53.590;9.956;2022-11-20T01:57:10;9.45;;;5.28;;
12597;SDS011;6364;53.590;9.956;2022-11-20T01:59:37;9.05;;;5.35;;
12597;SDS011;6364;53.590;9.956;2022-11-20T02:02:06;11.00;;;5.05;;
12597;SDS011;6364;53.590;9.956;2022-11-20T02:04:31;7.78;;;5.65;;
12597;SDS011;6364;53.590;9.956;2022-11-20T02:07:00;10.70;;;5.88;;
12597;SDS011;6364;53.590;9.956;2022-11-20T02:09:26;10.50;;;5.88;;
12597;SDS011;6364;53.590;9.956;2022-11-20T02:11:52;9.98;;;5.20;;
12597;SDS011;6364;53.590;9.956;2022-11-20T02:14:18;9.55;;;5.82;;
12597;SDS011;6364;53.590;9.956;2022-11-20T02:16:44;10.55;;;5.68;;
12597;SDS011;6364;53.590;9.956;2022-11-20T02:19:32;6.72;;;5.03;;
12597;SDS011;6364;53.590;9.956;2022-11-20T02:25:03;11.82;;;5.35;;
12597;SDS011;6364;53.590;9.956;2022-11-20T02:27:29;8.07;;;5.32;;
12597;SDS011;6364;53.590;9.956;2022-11-20T02:32:24;8.65;;;5.15;;
12597;SDS011;6364;53.590;9.956;2022-11-20T02:34:51;12.20;;;5.88;;
12597;SDS011;6364;53.590;9.956;2022-11-20T02:37:17;9.85;;;5.43;;
12597;SDS011;6364;53.590;9.956;2022-11-20T02:39:43;7.38;;;5.03;;
12597;SDS011;6364;53.590;9.956;2022-11-20T02:42:09;9.40;;;5.78;;
12597;SDS011;6364;53.590;9.956;2022-11-20T02:44:35;9.98;;;5.85;;
12597;SDS011;6364;53.590;9.956;2022-11-20T02:47:00;10.23;;;6.18;;
12597;SDS011;6364;53.590;9.956;2022-11-20T02:49:25;7.60;;;5.55;;
12597;SDS011;6364;53.590;9.956;2022-11-20T02:51:51;8.80;;;6.03;;
12597;SDS011;6364;53.590;9.956;2022-11-20T02:54:16;8.40;;;5.85;;
12597;SDS011;6364;53.590;9.956;2022-11-20T02:56:41;8.77;;;5.82;;
12597;SDS011;6364;53.590;9.956;2022-11-20T02:59:07;10.43;;;5.95;;
12597;SDS011;6364;53.590;9.956;2022-11-20T03:01:32;10.13;;;6.65;;
12597;SDS011;6364;53.590;9.956;2022-11-20T03:03:58;15.90;;;6.70;;
12597;SDS011;6364;53.590;9.956;2022-11-20T03:06:23;10.30;;;6.43;;
12597;SDS011;6364;53.590;9.956;2022-11-20T03:08:48;11.07;;;6.03;;
12597;SDS011;6364;53.590;9.956;2022-11-20T03:11:14;8.57;;;5.65;;
12597;SDS011;6364;53.590;9.956;2022-11-20T03:13:39;10.07;;;5.90;;
12597;SDS011;6364;53.590;9.956;2022-11-20T03:16:05;10.15;;;5.70;;
12597;SDS011;6364;53.590;9.956;2022-11-20T03:18:32;10.98;;;5.97;;
12597;SDS011;6364;53.590;9.956;2022-11-20T03:20:57;8.93;;;6.07;;
12597;SDS011;6364;53.590;9.956;2022-11-20T03:23:24;8.00;;;5.82;;
12597;SDS011;6364;53.590;9.956;2022-11-20T03:25:49;10.65;;;5.72;;
12597;SDS011;6364;53.590;9.956;2022-11-20T03:28:14;9.02;;;5.60;;
12597;SDS011;6364;53.590;9.956;2022-11-20T03:30:40;7.97;;;5.68;;
12597;SDS011;6364;53.590;9.956;2022-11-20T03:33:05;8.43;;;5.43;;
12597;SDS011;6364;53.590;9.956;2022-11-20T03:35:31;8.18;;;5.55;;
12597;SDS011;6364;53.590;9.956;2022-11-20T03:37:57;7.63;;;5.50;;
12597;SDS011;6364;53.590;9.956;2022-11-20T03:40:22;7.72;;;5.07;;
12597;SDS011;6364;53.590;9.956;2022-11-20T03:42:47;6.95;;;5.53;;
12597;SDS011;6364;53.590;9.956;2022-11-20T03:45:16;8.13;;;5.43;;
12597;SDS011;6364;53.590;9.956;2022-11-20T03:47:42;8.85;;;6.10;;
12597;SDS011;6364;53.590;9.956;2022-11-20T03:50:09;9.40;;;6.20;;
12597;SDS011;6364;53.590;9.956;2022-11-20T03:52:35;6.57;;;5.40;;
12597;SDS011;6364;53.590;9.956;2022-11-20T03:55:01;8.80;;;6.00;;
12597;SDS011;6364;53.590;9.956;2022-11-20T03:57:26;8.30;;;6.03;;
12597;SDS011;6364;53.590;9.956;2022-11-20T03:59:51;10.32;;;6.10;;
12597;SDS011;6364;53.590;9.956;2022-11-20T04:02:17;8.48;;;5.97;;
12597;SDS011;6364;53.590;9.956;2022-11-20T04:04:42;9.63;;;5.40;;
12597;SDS011;6364;53.590;9.956;2022-11-20T04:07:07;10.95;;;6.38;;
12597;SDS011;6364;53.590;9.956;2022-11-20T04:09:33;10.30;;;6.22;;
12597;SDS011;6364;53.590;9.956;2022-11-20T04:11:58;7.78;;;5.70;;
12597;SDS011;6364;53.590;9.956;2022-11-20T04:14:23;10.90;;;5.93;;
12597;SDS011;6364;53.590;9.956;2022-11-20T04:16:49;13.05;;;6.53;;
12597;SDS011;6364;53.590;9.956;2022-11-20T04:19:15;13.35;;;6.43;;
12597;SDS011;6364;53.590;9.956;2022-11-20T04:21:41;10.25;;;6.70;;
12597;SDS011;6364;53.590;9.956;2022-11-20T04:24:09;7.70;;;5.93;;
12597;SDS011;6364;53.590;9.956;2022-11-20T04:26:37;7.50;;;5.95;;
12597;SDS011;6364;53.590;9.956;2022-11-20T04:29:03;9.88;;;5.93;;
12597;SDS011;6364;53.590;9.956;2022-11-20T04:31:29;8.65;;;6.15;;
12597;SDS011;6364;53.590;9.956;2022-11-20T04:33:58;9.00;;;6.07;;
12597;SDS011;6364;53.590;9.956;2022-11-20T04:36:25;9.60;;;6.30;;
12597;SDS011;6364;53.590;9.956;2022-11-20T04:38:51;11.07;;;6.32;;
12597;SDS011;6364;53.590;9.956;2022-11-20T04:41:21;7.88;;;6.00;;
12597;SDS011;6364;53.590;9.956;2022-11-20T04:43:48;11.43;;;6.25;;
12597;SDS011;6364;53.590;9.956;2022-11-20T04:46:14;8.43;;;6.03;;
12597;SDS011;6364;53.590;9.956;2022-11-20T04:48:40;13.13;;;6.95;;
12597;SDS011;6364;53.590;9.956;2022-11-20T04:51:06;7.95;;;6.20;;
12597;SDS011;6364;53.590;9.956;2022-11-20T04:53:31;14.85;;;6.78;;
12597;SDS011;6364;53.590;9.956;2022-11-20T04:56:00;9.57;;;6.05;;
12597;SDS011;6364;53.590;9.956;2022-11-20T04:58:26;10.40;;;6.47;;
12597;SDS011;6364;53.590;9.956;2022-11-20T05:00:52;9.13;;;6.18;;
12597;SDS011;6364;53.590;9.956;2022-11-20T05:03:17;11.23;;;6.82;;
12597;SDS011;6364;53.590;9.956;2022-11-20T05:05:42;11.40;;;6.47;;
12597;SDS011;6364;53.590;9.956;2022-11-20T05:08:07;10.63;;;6.47;;
12597;SDS011;6364;53.590;9.956;2022-11-20T05:10:33;8.68;;;6.40;;
12597;SDS011;6364;53.590;9.956;2022-11-20T05:12:58;10.25;;;6.70;;
12597;SDS011;6364;53.590;9.956;2022-11-20T05:15:23;8.43;;;6.63;;
12597;SDS011;6364;53.590;9.956;2022-11-20T05:17:52;12.13;;;6.63;;
12597;SDS011;6364;53.590;9.956;2022-11-20T05:20:17;9.65;;;6.90;;
12597;SDS011;6364;53.590;9.956;2022-11-20T05:22:43;11.45;;;7.38;;
12597;SDS011;6364;53.590;9.956;2022-11-20T05:25:08;9.68;;;6.82;;
12597;SDS011;6364;53.590;9.956;2022-11-20T05:27:34;10.80;;;6.93;;
12597;SDS011;6364;53.590;9.956;2022-11-20T05:29:59;10.40;;;6.18;;
12597;SDS011;6364;53.590;9.956;2022-11-20T05:32:24;8.98;;;6.97;;
12597;SDS011;6364;53.590;9.956;2022-11-20T05:34:50;9.00;;;6.80;;
12597;SDS011;6364;53.590;9.956;2022-11-20T05:37:16;11.20;;;6.88;;
12597;SDS011;6364;53.590;9.956;2022-11-20T05:39:41;8.75;;;6.20;;
12597;SDS011;6364;53.590;9.956;2022-11-20T05:42:07;11.85;;;6.88;;
12597;SDS011;6364;53.590;9.956;2022-11-20T05:44:51;8.85;;;6.18;;
12597;SDS011;6364;53.590;9.956;2022-11-20T05:47:16;11.40;;;6.75;;
12597;SDS011;6364;53.590;9.956;2022-11-20T05:49:41;14.63;;;6.50;;
12597;SDS011;6364;53.590;9.956;2022-11-20T05:52:07;11.80;;;6.68;;
12597;SDS011;6364;53.590;9.956;2022-11-20T05:54:32;10.27;;;6.72;;
12597;SDS011;6364;53.590;9.956;2022-11-20T05:56:57;8.27;;;6.60;;
12597;SDS011;6364;53.590;9.956;2022-11-20T05:59:22;9.73;;;6.97;;
12597;SDS011;6364;53.590;9.956;2022-11-20T06:01:48;11.48;;;7.10;;
12597;SDS011;6364;53.590;9.956;2022-11-20T06:04:13;14.70;;;8.05;;
12597;SDS011;6364;53.590;9.956;2022-11-20T06:06:38;11.00;;;8.15;;
12597;SDS011;6364;53.590;9.956;2022-11-20T06:09:04;12.68;;;8.70;;
12597;SDS011;6364;53.590;9.956;2022-11-20T06:11:29;14.15;;;8.73;;
12597;SDS011;6364;53.590;9.956;2022-11-20T06:13:54;15.00;;;9.10;;
12597;SDS011;6364;53.590;9.956;2022-11-20T06:16:20;16.17;;;10.00;;
12597;SDS011;6364;53.590;9.956;2022-11-20T06:18:46;15.95;;;10.55;;
12597;SDS011;6364;53.590;9.956;2022-11-20T06:21:13;17.02;;;10.77;;
12597;SDS011;6364;53.590;9.956;2022-11-20T06:23:42;15.75;;;10.63;;
12597;SDS011;6364;53.590;9.956;2022-11-20T06:26:09;18.55;;;11.32;;
12597;SDS011;6364;53.590;9.956;2022-11-20T06:28:36;17.50;;;10.77;;
12597;SDS011;6364;53.590;9.956;2022-11-20T06:31:02;17.92;;;11.07;;
12597;SDS011;6364;53.590;9.956;2022-11-20T06:33:27;18.48;;;10.60;;
12597;SDS011;6364;53.590;9.956;2022-11-20T06:35:55;17.10;;;10.32;;
12597;SDS011;6364;53.590;9.956;2022-11-20T06:38:22;15.23;;;10.20;;
12597;SDS011;6364;53.590;9.956;2022-11-20T06:40:47;18.90;;;10.88;;
12597;SDS011;6364;53.590;9.956;2022-11-20T06:43:12;16.08;;;9.63;;
12597;SDS011;6364;53.590;9.956;2022-11-20T06:45:37;15.07;;;9.60;;
12597;SDS011;6364;53.590;9.956;2022-11-20T06:48:03;16.15;;;9.70;;
12597;SDS011;6364;53.590;9.956;2022-11-20T06:50:28;16.80;;;9.65;;
12597;SDS011;6364;53.590;9.956;2022-11-20T06:52:54;11.82;;;8.40;;
12597;SDS011;6364;53.590;9.956;2022-11-20T06:55:19;10.32;;;7.35;;
12597;SDS011;6364;53.590;9.956;2022-11-20T06:57:44;12.23;;;7.28;;
12597;SDS011;6364;53.590;9.956;2022-11-20T07:00:10;14.82;;;7.40;;
12597;SDS011;6364;53.590;9.956;2022-11-20T07:02:36;13.05;;;7.13;;
12597;SDS011;6364;53.590;9.956;2022-11-20T07:05:01;11.48;;;7.45;;
12597;SDS011;6364;53.590;9.956;2022-11-20T07:07:27;12.18;;;7.75;;
12597;SDS011;6364;53.590;9.956;2022-11-20T07:09:52;10.50;;;6.82;;
12597;SDS011;6364;53.590;9.956;2022-11-20T07:12:17;13.48;;;7.25;;
12597;SDS011;6364;53.590;9.956;2022-11-20T07:14:43;11.95;;;7.00;;
12597;SDS011;6364;53.590;9.956;2022-11-20T07:17:08;9.85;;;6.80;;
12597;SDS011;6364;53.590;9.956;2022-11-20T07:19:33;11.50;;;6.80;;
12597;SDS011;6364;53.590;9.956;2022-11-20T07:21:59;11.50;;;7.22;;
12597;SDS011;6364;53.590;9.956;2022-11-20T07:24:24;10.63;;;7.07;;
12597;SDS011;6364;53.590;9.956;2022-11-20T07:26:49;11.10;;;7.50;;
12597;SDS011;6364;53.590;9.956;2022-11-20T07:29:15;11.43;;;6.75;;
12597;SDS011;6364;53.590;9.956;2022-11-20T07:31:41;10.68;;;6.63;;
12597;SDS011;6364;53.590;9.956;2022-11-20T07:34:06;13.10;;;7.38;;
12597;SDS011;6364;53.590;9.956;2022-11-20T07:36:32;11.52;;;7.10;;
12597;SDS011;6364;53.590;9.956;2022-11-20T07:38:57;12.50;;;7.05;;
12597;SDS011;6364;53.590;9.956;2022-11-20T07:41:22;10.32;;;6.80;;
12597;SDS011;6364;53.590;9.956;2022-11-20T07:43:48;11.48;;;6.88;;
12597;SDS011;6364;53.590;9.956;2022-11-20T07:46:13;11.85;;;7.18;;
12597;SDS011;6364;53.590;9.956;2022-11-20T07:48:39;9.10;;;6.93;;
12597;SDS011;6364;53.590;9.956;2022-11-20T07:51:04;11.50;;;6.95;;
12597;SDS011;6364;53.590;9.956;2022-11-20T07:53:29;10.95;;;7.20;;
12597;SDS011;6364;53.590;9.956;2022-11-20T07:55:55;10.85;;;7.22;;
12597;SDS011;6364;53.590;9.956;2022-11-20T07:58:20;12.73;;;7.40;;
12597;SDS011;6364;53.590;9.956;2022-11-20T08:00:46;10.57;;;7.00;;
12597;SDS011;6364;53.590;9.956;2022-11-20T08:03:12;9.88;;;7.18;;
12597;SDS011;6364;53.590;9.956;2022-11-20T08:05:37;10.55;;;7.65;;
12597;SDS011;6364;53.590;9.956;2022-11-20T08:08:03;14.55;;;7.88;;
12597;SDS011;6364;53.590;9.956;2022-11-20T08:10:28;12.57;;;6.97;;
12597;SDS011;6364;53.590;9.956;2022-11-20T08:12:54;9.52;;;7.30;;
12597;SDS011;6364;53.590;9.956;2022-11-20T08:15:47;10.75;;;7.07;;
12597;SDS011;6364;53.590;9.956;2022-11-20T08:18:14;12.07;;;7.22;;
12597;SDS011;6364;53.590;9.956;2022-11-20T08:20:40;10.25;;;6.70;;
12597;SDS011;6364;53.590;9.956;2022-11-20T08:23:05;9.20;;;6.75;;
12597;SDS011;6364;53.590;9.956;2022-11-20T08:25:32;10.68;;;7.03;;
12597;SDS011;6364;53.590;9.956;2022-11-20T08:28:03;9.25;;;6.53;;
12597;SDS011;6364;53.590;9.956;2022-11-20T08:30:30;11.10;;;6.57;;
12597;SDS011;6364;53.590;9.956;2022-11-20T08:33:00;9.88;;;6.53;;
12597;SDS011;6364;53.590;9.956;2022-11-20T08:35:26;8.93;;;6.13;;
12597;SDS011;6364;53.590;9.956;2022-11-20T08:37:51;8.98;;;6.28;;
12597;SDS011;6364;53.590;9.956;2022-11-20T08:40:16;12.25;;;6.10;;
12597;SDS011;6364;53.590;9.956;2022-11-20T08:42:45;8.52;;;5.93;;
12597;SDS011;6364;53.590;9.956;2022-11-20T08:45:14;10.02;;;5.68;;
12597;SDS011;6364;53.590;9.956;2022-11-20T08:47:40;8.20;;;5.75;;
12597;SDS011;6364;53.590;9.956;2022-11-20T08:50:07;8.68;;;5.82;;
12597;SDS011;6364;53.590;9.956;2022-11-20T08:52:33;9.63;;;6.03;;
12597;SDS011;6364;53.590;9.956;2022-11-20T08:54:58;7.40;;;5.20;;
12597;SDS011;6364;53.590;9.956;2022-11-20T08:57:23;7.30;;;5.63;;
12597;SDS011;6364;53.590;9.956;2022-11-20T08:59:48;7.95;;;4.68;;
12597;SDS011;6364;53.590;9.956;2022-11-20T09:02:14;7.28;;;5.30;;
12597;SDS011;6364;53.590;9.956;2022-11-20T09:04:40;8.82;;;5.45;;
12597;SDS011;6364;53.590;9.956;2022-11-20T09:07:05;7.15;;;5.22;;
12597;SDS011;6364;53.590;9.956;2022-11-20T09:09:31;7.40;;;5.00;;
12597;SDS011;6364;53.590;9.956;2022-11-20T09:11:56;8.27;;;4.75;;
12597;SDS011;6364;53.590;9.956;2022-11-20T09:14:21;6.07;;;4.93;;
12597;SDS011;6364;53.590;9.956;2022-11-20T09:16:49;6.35;;;4.63;;
12597;SDS011;6364;53.590;9.956;2022-11-20T09:19:14;8.52;;;4.88;;
12597;SDS011;6364;53.590;9.956;2022-11-20T09:21:40;7.47;;;5.00;;
12597;SDS011;6364;53.590;9.956;2022-11-20T09:24:05;6.70;;;4.65;;
12597;SDS011;6364;53.590;9.956;2022-11-20T09:26:31;7.55;;;4.75;;
12597;SDS011;6364;53.590;9.956;2022-11-20T09:28:56;6.28;;;4.65;;
12597;SDS011;6364;53.590;9.956;2022-11-20T09:31:22;7.75;;;5.20;;
12597;SDS011;6364;53.590;9.956;2022-11-20T09:33:49;7.65;;;5.05;;
12597;SDS011;6364;53.590;9.956;2022-11-20T09:36:14;8.88;;;5.25;;
12597;SDS011;6364;53.590;9.956;2022-11-20T09:38:40;7.38;;;5.45;;
12597;SDS011;6364;53.590;9.956;2022-11-20T09:41:06;9.07;;;5.00;;
12597;SDS011;6364;53.590;9.956;2022-11-20T09:49:06;8.13;;;5.63;;
12597;SDS011;6364;53.590;9.956;2022-11-20T09:51:58;7.47;;;5.22;;
12597;SDS011;6364;53.590;9.956;2022-11-20T09:54:27;6.57;;;5.18;;
12597;SDS011;6364;53.590;9.956;2022-11-20T09:56:59;7.63;;;5.32;;
12597;SDS011;6364;53.590;9.956;2022-11-20T10:02:13;8.50;;;5.55;;
12597;SDS011;6364;53.590;9.956;2022-11-20T10:04:59;7.97;;;5.68;;
12597;SDS011;6364;53.590;9.956;2022-11-20T10:10:15;7.25;;;5.22;;
12597;SDS011;6364;53.590;9.956;2022-11-20T10:18:17;7.32;;;5.40;;
12597;SDS011;6364;53.590;9.956;2022-11-20T10:21:08;6.47;;;5.25;;
12597;SDS011;6364;53.590;9.956;2022-11-20T10:23:41;7.93;;;5.50;;
12597;SDS011;6364;53.590;9.956;2022-11-20T10:27:17;7.70;;;5.43;;
12597;SDS011;6364;53.590;9.956;2022-11-20T10:29:16;9.65;;;5.05;;
12597;SDS011;6364;53.590;9.956;2022-11-20T10:31:43;8.25;;;5.75;;
12597;SDS011;6364;53.590;9.956;2022-11-20T10:34:26;8.68;;;5.50;;
12597;SDS011;6364;53.590;9.956;2022-11-20T10:36:55;7.75;;;4.97;;
12597;SDS011;6364;53.590;9.956;2022-11-20T10:39:24;8.40;;;5.30;;
12597;SDS011;6364;53.590;9.956;2022-11-20T10:41:55;6.90;;;5.25;;
12597;SDS011;6364;53.590;9.956;2022-11-20T10:44:21;7.25;;;5.30;;
12597;SDS011;6364;53.590;9.956;2022-11-20T10:47:12;7.35;;;5.65;;
12597;SDS011;6364;53.590;9.956;2022-11-20T10:49:42;8.85;;;5.95;;
12597;SDS011;6364;53.590;9.956;2022-11-20T11:00:33;7.93;;;5.57;;
12597;SDS011;6364;53.590;9.956;2022-11-20T11:02:58;6.55;;;4.72;;
12597;SDS011;6364;53.590;9.956;2022-11-20T11:08:13;7.50;;;5.25;;
12597;SDS011;6364;53.590;9.956;2022-11-20T11:13:18;6.85;;;4.97;;
12597;SDS011;6364;53.590;9.956;2022-11-20T11:15:45;7.35;;;5.13;;
12597;SDS011;6364;53.590;9.956;2022-11-20T11:18:10;6.38;;;5.00;;
12597;SDS011;6364;53.590;9.956;2022-11-20T11:20:36;6.18;;;4.63;;
12597;SDS011;6364;53.590;9.956;2022-11-20T11:23:02;5.85;;;4.82;;
12597;SDS011;6364;53.590;9.956;2022-11-20T11:25:31;7.78;;;5.00;;
12597;SDS011;6364;53.590;9.956;2022-11-20T11:28:03;5.35;;;4.57;;
12597;SDS011;6364;53.590;9.956;2022-11-20T11:30:43;5.88;;;4.63;;
12597;SDS011;6364;53.590;9.956;2022-11-20T11:33:10;7.10;;;4.60;;
12597;SDS011;6364;53.590;9.956;2022-11-20T11:35:56;5.68;;;4.63;;
12597;SDS011;6364;53.590;9.956;2022-11-20T11:40:56;7.47;;;5.00;;
12597;SDS011;6364;53.590;9.956;2022-11-20T11:43:26;6.22;;;4.53;;
12597;SDS011;6364;53.590;9.956;2022-11-20T11:48:55;5.18;;;3.50;;
12597;SDS011;6364;53.590;9.956;2022-11-20T11:51:21;4.20;;;3.28;;
12597;SDS011;6364;53.590;9.956;2022-11-20T11:53:46;5.25;;;3.67;;
12597;SDS011;6364;53.590;9.956;2022-11-20T11:56:12;5.45;;;3.80;;
12597;SDS011;6364;53.590;9.956;2022-11-20T11:58:43;5.32;;;4.38;;
12597;SDS011;6364;53.590;9.956;2022-11-20T12:04:04;6.35;;;3.83;;
12597;SDS011;6364;53.590;9.956;2022-11-20T12:06:31;5.25;;;4.03;;
12597;SDS011;6364;53.590;9.956;2022-11-20T12:09:02;4.20;;;3.65;;
12597;SDS011;6364;53.590;9.956;2022-11-20T12:14:17;5.00;;;3.60;;
12597;SDS011;6364;53.590;9.956;2022-11-20T12:17:00;5.60;;;3.45;;
12597;SDS011;6364;53.590;9.956;2022-11-20T12:19:26;6.65;;;3.80;;
12597;SDS011;6364;53.590;9.956;2022-11-20T12:27:34;4.32;;;3.47;;
12597;SDS011;6364;53.590;9.956;2022-11-20T12:30:22;5.38;;;3.78;;
12597;SDS011;6364;53.590;9.956;2022-11-20T12:43:39;5.45;;;3.35;;
12597;SDS011;6364;53.590;9.956;2022-11-20T12:46:30;3.83;;;3.42;;
12597;SDS011;6364;53.590;9.956;2022-11-20T12:49:06;4.85;;;3.40;;
12597;SDS011;6364;53.590;9.956;2022-11-20T12:57:22;4.78;;;3.40;;
12597;SDS011;6364;53.590;9.956;2022-11-20T13:00:01;5.10;;;3.25;;
12597;SDS011;6364;53.590;9.956;2022-11-20T13:11:25;4.65;;;3.28;;
12597;SDS011;6364;53.590;9.956;2022-11-20T13:14:14;5.00;;;3.17;;
12597;SDS011;6364;53.590;9.956;2022-11-20T13:16:44;3.63;;;2.97;;
12597;SDS011;6364;53.590;9.956;2022-11-20T13:19:15;3.38;;;2.85;;
12597;SDS011;6364;53.590;9.956;2022-11-20T13:21:43;4.45;;;2.45;;
12597;SDS011;6364;53.590;9.956;2022-11-20T13:29:30;2.70;;;2.50;;
12597;SDS011;6364;53.590;9.956;2022-11-20T13:32:07;4.05;;;2.60;;
12597;SDS011;6364;53.590;9.956;2022-11-20T13:34:39;4.28;;;3.00;;
12597;SDS011;6364;53.590;9.956;2022-11-20T13:37:04;3.13;;;2.70;;
12597;SDS011;6364;53.590;9.956;2022-11-20T13:39:31;2.42;;;2.22;;
12597;SDS011;6364;53.590;9.956;2022-11-20T13:42:42;3.13;;;2.50;;
12597;SDS011;6364;53.590;9.956;2022-11-20T13:44:53;3.40;;;2.60;;
12597;SDS011;6364;53.590;9.956;2022-11-20T13:47:20;4.18;;;2.92;;
12597;SDS011;6364;53.590;9.956;2022-11-20T13:49:51;3.08;;;2.60;;
12597;SDS011;6364;53.590;9.956;2022-11-20T14:01:09;3.70;;;3.10;;
12597;SDS011;6364;53.590;9.956;2022-11-20T14:03:35;5.68;;;3.35;;
12597;SDS011;6364;53.590;9.956;2022-11-20T14:06:03;6.68;;;4.22;;
12597;SDS011;6364;53.590;9.956;2022-11-20T14:08:39;7.60;;;3.80;;
12597;SDS011;6364;53.590;9.956;2022-11-20T14:13:58;5.03;;;3.30;;
12597;SDS011;6364;53.590;9.956;2022-11-20T14:16:26;15.13;;;8.63;;
12597;SDS011;6364;53.590;9.956;2022-11-20T14:18:53;7.57;;;5.05;;
12597;SDS011;6364;53.590;9.956;2022-11-20T14:21:23;8.80;;;5.20;;
12597;SDS011;6364;53.590;9.956;2022-11-20T14:23:51;5.15;;;3.95;;
12597;SDS011;6364;53.590;9.956;2022-11-20T14:26:18;5.75;;;3.88;;
12597;SDS011;6364;53.590;9.956;2022-11-20T14:28:47;6.22;;;3.90;;
12597;SDS011;6364;53.590;9.956;2022-11-20T14:31:16;5.82;;;3.67;;
12597;SDS011;6364;53.590;9.956;2022-11-20T14:33:46;5.05;;;3.53;;
12597;SDS011;6364;53.590;9.956;2022-11-20T14:36:16;5.85;;;3.63;;
12597;SDS011;6364;53.590;9.956;2022-11-20T14:38:42;5.10;;;3.90;;
12597;SDS011;6364;53.590;9.956;2022-11-20T14:41:08;5.05;;;3.58;;
12597;SDS011;6364;53.590;9.956;2022-11-20T14:43:39;5.43;;;3.63;;
12597;SDS011;6364;53.590;9.956;2022-11-20T14:46:10;6.20;;;3.95;;
12597;SDS011;6364;53.590;9.956;2022-11-20T14:48:45;4.78;;;3.80;;
12597;SDS011;6364;53.590;9.956;2022-11-20T14:54:14;5.97;;;4.28;;
12597;SDS011;6364;53.590;9.956;2022-11-20T14:57:00;5.63;;;4.30;;
12597;SDS011;6364;53.590;9.956;2022-11-20T14:59:30;4.93;;;4.10;;
12597;SDS011;6364;53.590;9.956;2022-11-20T15:02:10;5.68;;;4.35;;
12597;SDS011;6364;53.590;9.956;2022-11-20T15:04:49;4.65;;;3.78;;
12597;SDS011;6364;53.590;9.956;2022-11-20T15:10:30;7.53;;;4.43;;
12597;SDS011;6364;53.590;9.956;2022-11-20T15:12:59;6.13;;;4.28;;
12597;SDS011;6364;53.590;9.956;2022-11-20T15:18:00;8.00;;;4.40;;
12597;SDS011;6364;53.590;9.956;2022-11-20T15:20:26;6.30;;;4.50;;
12597;SDS011;6364;53.590;9.956;2022-11-20T15:22:52;7.10;;;4.45;;
12597;SDS011;6364;53.590;9.956;2022-11-20T15:25:18;7.38;;;4.68;;
12597;SDS011;6364;53.590;9.956;2022-11-20T15:27:43;4.78;;;4.15;;
12597;SDS011;6364;53.590;9.956;2022-11-20T15:30:13;6.30;;;4.90;;
12597;SDS011;6364;53.590;9.956;2022-11-20T15:32:40;7.95;;;5.57;;
12597;SDS011;6364;53.590;9.956;2022-11-20T15:35:07;31.20;;;12.50;;
12597;SDS011;6364;53.590;9.956;2022-11-20T15:37:32;22.85;;;9.15;;
12597;SDS011;6364;53.590;9.956;2022-11-20T15:39:57;8.70;;;6.10;;
12597;SDS011;6364;53.590;9.956;2022-11-20T15:42:23;6.53;;;5.20;;
12597;SDS011;6364;53.590;9.956;2022-11-20T15:44:48;7.68;;;5.75;;
12597;SDS011;6364;53.590;9.956;2022-11-20T15:47:13;8.88;;;5.57;;
12597;SDS011;6364;53.590;9.956;2022-11-20T15:49:39;13.77;;;8.30;;
12597;SDS011;6364;53.590;9.956;2022-11-20T15:52:04;16.05;;;9.05;;
12597;SDS011;6364;53.590;9.956;2022-11-20T15:54:29;39.22;;;18.48;;
12597;SDS011;6364;53.590;9.956;2022-11-20T15:56:55;41.05;;;18.17;;
12597;SDS011;6364;53.590;9.956;2022-11-20T15:59:20;23.33;;;11.27;;
12597;SDS011;6364;53.590;9.956;2022-11-20T16:01:45;19.25;;;11.18;;
12597;SDS011;6364;53.590;9.956;2022-11-20T16:04:11;16.30;;;9.07;;
12597;SDS011;6364;53.590;9.956;2022-11-20T16:06:38;15.90;;;9.63;;
12597;SDS011;6364;53.590;9.956;2022-11-20T16:09:03;12.55;;;7.78;;
12597;SDS011;6364;53.590;9.956;2022-11-20T16:11:28;12.05;;;7.88;;
12597;SDS011;6364;53.590;9.956;2022-11-20T16:13:54;15.18;;;8.93;;
12597;SDS011;6364;53.590;9.956;2022-11-20T16:16:37;13.18;;;7.80;;
12597;SDS011;6364;53.590;9.956;2022-11-20T16:19:05;33.65;;;18.00;;
12597;SDS011;6364;53.590;9.956;2022-11-20T16:21:30;40.80;;;24.17;;
12597;SDS011;6364;53.590;9.956;2022-11-20T16:23:59;31.92;;;18.70;;
12597;SDS011;6364;53.590;9.956;2022-11-20T16:26:26;24.17;;;13.73;;
12597;SDS011;6364;53.590;9.956;2022-11-20T16:28:51;19.00;;;11.13;;
12597;SDS011;6364;53.590;9.956;2022-11-20T16:31:17;12.93;;;8.30;;
12597;SDS011;6364;53.590;9.956;2022-11-20T16:33:54;16.67;;;9.20;;
12597;SDS011;6364;53.590;9.956;2022-11-20T16:36:21;14.75;;;7.95;;
12597;SDS011;6364;53.590;9.956;2022-11-20T16:38:51;12.45;;;7.90;;
12597;SDS011;6364;53.590;9.956;2022-11-20T16:41:17;11.25;;;7.63;;
12597;SDS011;6364;53.590;9.956;2022-11-20T16:43:46;11.73;;;7.72;;